ESMF weather

Fagerhult Airport
Fagerhult, Skåne län, Sweden

Public forecast

Using degrees Celsius for public forecast. Weather courtesy of forecast.io.

METAR (pilot weather report)

Closest report is Ljungbyhed Airport, 20.2 nm (37.5 km) SSW. Retrieved 2019/05/22 18:20 UTC (0 seconds ago):

ESTL 221820Z AUTO 30017KT 9999 OVC008/// 12/11 Q1013

TAF (pilot weather forecast)

Forecast is more than 12 hours old.

Closest forecast is Ljungbyhed Airport, 20.2 nm (37.5 km) SSW. Retrieved 2016/03/01 09:33 UTC (3 years ago):

TAF ESTL 010830Z 0109/0124 14004KT 9999 SCT025